sensor_id;sensor_type;location;lat;lon;timestamp;pressure;altitude;pressure_sealevel;temperature;humidity
35758;BME280;21879;50.110;18.900;2023-06-24T00:02:38;98820.67;;;21.89;57.92
35758;BME280;21879;50.110;18.900;2023-06-24T00:13:11;98811.17;;;21.88;58.05
35758;BME280;21879;50.110;18.900;2023-06-24T00:23:39;98797.27;;;21.90;58.05
35758;BME280;21879;50.110;18.900;2023-06-24T00:34:07;98789.02;;;21.95;58.08
35758;BME280;21879;50.110;18.900;2023-06-24T00:44:35;98787.43;;;22.01;58.15
35758;BME280;21879;50.110;18.900;2023-06-24T00:55:05;98789.91;;;22.02;58.15
35758;BME280;21879;50.110;18.900;2023-06-24T01:05:33;98791.29;;;21.99;58.10
35758;BME280;21879;50.110;18.900;2023-06-24T01:16:15;98806.25;;;21.84;58.07
35758;BME280;21879;50.110;18.900;2023-06-24T01:27:18;98817.20;;;21.81;58.13
35758;BME280;21879;50.110;18.900;2023-06-24T01:37:53;98809.70;;;21.76;58.19
35758;BME280;21879;50.110;18.900;2023-06-24T01:48:25;98812.48;;;21.70;58.23
35758;BME280;21879;50.110;18.900;2023-06-24T01:58:55;98823.27;;;21.71;58.30
35758;BME280;21879;50.110;18.900;2023-06-24T02:09:24;98814.27;;;21.73;58.38
35758;BME280;21879;50.110;18.900;2023-06-24T02:19:55;98801.85;;;21.70;58.32
35758;BME280;21879;50.110;18.900;2023-06-24T02:30:24;98803.14;;;21.63;58.50
35758;BME280;21879;50.110;18.900;2023-06-24T02:40:53;98802.57;;;21.60;58.89
35758;BME280;21879;50.110;18.900;2023-06-24T02:51:21;98802.92;;;21.67;59.01
35758;BME280;21879;50.110;18.900;2023-06-24T03:01:49;98808.45;;;21.52;59.12
35758;BME280;21879;50.110;18.900;2023-06-24T03:12:17;98816.71;;;21.44;59.50
35758;BME280;21879;50.110;18.900;2023-06-24T03:22:45;98815.07;;;21.41;59.81
35758;BME280;21879;50.110;18.900;2023-06-24T03:33:13;98823.80;;;21.36;60.05
35758;BME280;21879;50.110;18.900;2023-06-24T03:43:43;98831.33;;;21.30;60.23
35758;BME280;21879;50.110;18.900;2023-06-24T03:54:11;98841.91;;;21.24;60.77
35758;BME280;21879;50.110;18.900;2023-06-24T04:04:39;98847.86;;;21.29;61.02
35758;BME280;21879;50.110;18.900;2023-06-24T04:15:08;98856.48;;;21.26;61.41
35758;BME280;21879;50.110;18.900;2023-06-24T04:25:36;98859.28;;;21.23;61.75
35758;BME280;21879;50.110;18.900;2023-06-24T04:36:04;98864.37;;;21.25;62.22
35758;BME280;21879;50.110;18.900;2023-06-24T04:46:32;98868.95;;;21.31;62.88
35758;BME280;21879;50.110;18.900;2023-06-24T04:57:01;98880.88;;;21.30;63.17
35758;BME280;21879;50.110;18.900;2023-06-24T05:07:28;98884.49;;;21.25;63.68
35758;BME280;21879;50.110;18.900;2023-06-24T05:17:57;98897.89;;;21.22;64.39
35758;BME280;21879;50.110;18.900;2023-06-24T05:28:24;98904.08;;;21.29;64.98
35758;BME280;21879;50.110;18.900;2023-06-24T05:38:52;98912.46;;;21.36;65.01
35758;BME280;21879;50.110;18.900;2023-06-24T05:49:20;98918.44;;;21.25;64.86
35758;BME280;21879;50.110;18.900;2023-06-24T05:59:48;98930.15;;;20.98;64.36
35758;BME280;21879;50.110;18.900;2023-06-24T06:10:16;98946.81;;;20.75;64.74
35758;BME280;21879;50.110;18.900;2023-06-24T06:20:44;98953.95;;;20.70;64.43
35758;BME280;21879;50.110;18.900;2023-06-24T06:31:12;98955.59;;;20.54;64.37
35758;BME280;21879;50.110;18.900;2023-06-24T06:41:39;98967.64;;;20.56;64.60
35758;BME280;21879;50.110;18.900;2023-06-24T06:52:08;98975.41;;;20.57;64.32
35758;BME280;21879;50.110;18.900;2023-06-24T07:02:35;98984.74;;;20.46;63.94
35758;BME280;21879;50.110;18.900;2023-06-24T07:13:03;99000.05;;;20.47;63.97
35758;BME280;21879;50.110;18.900;2023-06-24T07:23:31;99002.66;;;20.52;63.82
35758;BME280;21879;50.110;18.900;2023-06-24T07:33:58;99012.31;;;20.69;63.53
35758;BME280;21879;50.110;18.900;2023-06-24T07:44:26;99026.98;;;20.65;63.00
35758;BME280;21879;50.110;18.900;2023-06-24T07:54:53;99040.09;;;20.64;62.90
35758;BME280;21879;50.110;18.900;2023-06-24T08:05:21;99044.88;;;20.68;62.65
35758;BME280;21879;50.110;18.900;2023-06-24T08:15:49;99051.51;;;20.66;62.27
35758;BME280;21879;50.110;18.900;2023-06-24T08:26:16;99066.62;;;20.68;62.34
35758;BME280;21879;50.110;18.900;2023-06-24T08:36:44;99083.20;;;20.72;62.28
35758;BME280;21879;50.110;18.900;2023-06-24T08:47:12;99094.23;;;20.78;62.26
35758;BME280;21879;50.110;18.900;2023-06-24T08:57:42;99097.06;;;20.82;62.04
35758;BME280;21879;50.110;18.900;2023-06-24T09:08:10;99109.41;;;20.91;61.98
35758;BME280;21879;50.110;18.900;2023-06-24T09:18:38;99109.20;;;20.95;61.66
35758;BME280;21879;50.110;18.900;2023-06-24T09:29:05;99117.88;;;21.10;62.06
35758;BME280;21879;50.110;18.900;2023-06-24T09:39:39;99125.06;;;21.20;61.62
35758;BME280;21879;50.110;18.900;2023-06-24T09:50:09;99132.77;;;21.32;61.34
35758;BME280;21879;50.110;18.900;2023-06-24T10:00:37;99137.64;;;21.39;61.32
35758;BME280;21879;50.110;18.900;2023-06-24T10:11:05;99142.98;;;21.46;61.66
35758;BME280;21879;50.110;18.900;2023-06-24T10:21:47;99140.73;;;21.45;61.44
35758;BME280;21879;50.110;18.900;2023-06-24T10:32:17;99155.51;;;21.39;61.24
35758;BME280;21879;50.110;18.900;2023-06-24T10:42:45;99162.58;;;21.34;61.01
35758;BME280;21879;50.110;18.900;2023-06-24T10:53:15;99167.65;;;21.24;60.77
35758;BME280;21879;50.110;18.900;2023-06-24T11:03:44;99170.23;;;21.18;60.58
35758;BME280;21879;50.110;18.900;2023-06-24T11:14:12;99177.63;;;21.11;60.39
35758;BME280;21879;50.110;18.900;2023-06-24T11:24:39;99174.95;;;20.99;60.05
35758;BME280;21879;50.110;18.900;2023-06-24T11:35:10;99172.52;;;20.90;60.01
35758;BME280;21879;50.110;18.900;2023-06-24T11:45:38;99173.16;;;20.84;60.03
35758;BME280;21879;50.110;18.900;2023-06-24T11:56:06;99177.12;;;20.58;60.11
35758;BME280;21879;50.110;18.900;2023-06-24T12:06:34;99177.52;;;20.43;60.33
35758;BME280;21879;50.110;18.900;2023-06-24T12:17:03;99178.66;;;20.29;60.37
35758;BME280;21879;50.110;18.900;2023-06-24T12:27:30;99184.16;;;20.20;60.75
35758;BME280;21879;50.110;18.900;2023-06-24T12:37:58;99187.08;;;20.17;60.51
35758;BME280;21879;50.110;18.900;2023-06-24T12:48:26;99193.70;;;20.19;60.22
35758;BME280;21879;50.110;18.900;2023-06-24T12:58:53;99204.73;;;20.22;60.15
35758;BME280;21879;50.110;18.900;2023-06-24T13:09:21;99211.17;;;20.20;59.57
35758;BME280;21879;50.110;18.900;2023-06-24T13:19:50;99218.09;;;20.14;59.43
35758;BME280;21879;50.110;18.900;2023-06-24T13:30:18;99217.17;;;20.02;59.38
35758;BME280;21879;50.110;18.900;2023-06-24T13:40:47;99211.52;;;19.93;59.15
35758;BME280;21879;50.110;18.900;2023-06-24T13:51:15;99207.27;;;19.85;58.90
35758;BME280;21879;50.110;18.900;2023-06-24T14:01:43;99200.52;;;19.86;58.90
35758;BME280;21879;50.110;18.900;2023-06-24T14:12:12;99203.06;;;19.89;58.27
35758;BME280;21879;50.110;18.900;2023-06-24T14:22:41;99201.95;;;19.81;57.68
35758;BME280;21879;50.110;18.900;2023-06-24T14:33:09;99203.06;;;19.83;57.62
35758;BME280;21879;50.110;18.900;2023-06-24T14:43:37;99198.34;;;19.87;57.34
35758;BME280;21879;50.110;18.900;2023-06-24T14:54:05;99191.63;;;19.91;56.96
35758;BME280;21879;50.110;18.900;2023-06-24T15:04:35;99191.11;;;19.96;56.53
35758;BME280;21879;50.110;18.900;2023-06-24T15:15:04;99193.96;;;19.95;56.18
35758;BME280;21879;50.110;18.900;2023-06-24T15:25:31;99192.86;;;19.79;55.68
35758;BME280;21879;50.110;18.900;2023-06-24T15:36:02;99197.34;;;19.68;56.21
35758;BME280;21879;50.110;18.900;2023-06-24T15:46:30;99196.61;;;19.78;57.02
35758;BME280;21879;50.110;18.900;2023-06-24T15:56:58;99193.77;;;19.83;57.36
35758;BME280;21879;50.110;18.900;2023-06-24T16:07:26;99195.77;;;19.85;57.54
35758;BME280;21879;50.110;18.900;2023-06-24T16:17:54;99194.93;;;19.89;57.30
35758;BME280;21879;50.110;18.900;2023-06-24T16:28:23;99200.59;;;19.93;57.00
35758;BME280;21879;50.110;18.900;2023-06-24T16:38:51;99196.48;;;19.99;57.19
35758;BME280;21879;50.110;18.900;2023-06-24T16:49:19;99192.81;;;19.98;57.05
35758;BME280;21879;50.110;18.900;2023-06-24T16:59:47;99185.56;;;19.94;57.43
35758;BME280;21879;50.110;18.900;2023-06-24T17:10:15;99179.03;;;19.89;57.70
35758;BME280;21879;50.110;18.900;2023-06-24T17:20:43;99174.03;;;19.95;57.85
35758;BME280;21879;50.110;18.900;2023-06-24T17:31:11;99178.51;;;20.02;57.88
35758;BME280;21879;50.110;18.900;2023-06-24T17:41:39;99174.52;;;20.09;58.53
35758;BME280;21879;50.110;18.900;2023-06-24T17:52:16;99176.59;;;20.06;58.97
35758;BME280;21879;50.110;18.900;2023-06-24T18:02:44;99177.76;;;20.08;59.00
35758;BME280;21879;50.110;18.900;2023-06-24T18:13:13;99174.84;;;20.14;59.05
35758;BME280;21879;50.110;18.900;2023-06-24T18:23:41;99167.52;;;20.16;59.39
35758;BME280;21879;50.110;18.900;2023-06-24T18:34:11;99162.65;;;20.10;59.61
35758;BME280;21879;50.110;18.900;2023-06-24T18:44:39;99170.22;;;20.07;59.73
35758;BME280;21879;50.110;18.900;2023-06-24T18:55:08;99171.66;;;20.10;59.89
35758;BME280;21879;50.110;18.900;2023-06-24T19:05:35;99165.55;;;20.08;59.69
35758;BME280;21879;50.110;18.900;2023-06-24T19:16:04;99173.60;;;20.01;59.88
35758;BME280;21879;50.110;18.900;2023-06-24T19:26:33;99171.67;;;19.84;59.83
35758;BME280;21879;50.110;18.900;2023-06-24T19:37:01;99170.89;;;19.68;60.36
35758;BME280;21879;50.110;18.900;2023-06-24T19:47:29;99170.81;;;19.50;60.58
35758;BME280;21879;50.110;18.900;2023-06-24T19:57:58;99165.55;;;19.27;60.80
35758;BME280;21879;50.110;18.900;2023-06-24T20:08:26;99161.85;;;19.07;61.07
35758;BME280;21879;50.110;18.900;2023-06-24T20:18:54;99157.54;;;18.86;60.99
35758;BME280;21879;50.110;18.900;2023-06-24T20:29:22;99157.36;;;18.75;61.26
35758;BME280;21879;50.110;18.900;2023-06-24T20:39:51;99160.52;;;18.55;61.10
35758;BME280;21879;50.110;18.900;2023-06-24T20:50:19;99158.81;;;18.38;61.40
35758;BME280;21879;50.110;18.900;2023-06-24T21:00:47;99156.46;;;18.24;61.60
35758;BME280;21879;50.110;18.900;2023-06-24T21:11:16;99154.86;;;18.09;61.79
35758;BME280;21879;50.110;18.900;2023-06-24T21:21:45;99153.92;;;18.00;61.70
35758;BME280;21879;50.110;18.900;2023-06-24T21:32:13;99158.14;;;17.83;61.99
35758;BME280;21879;50.110;18.900;2023-06-24T21:42:41;99156.48;;;17.75;61.85
35758;BME280;21879;50.110;18.900;2023-06-24T21:53:09;99154.52;;;17.52;61.77
35758;BME280;21879;50.110;18.900;2023-06-24T22:03:38;99154.48;;;17.41;61.97
35758;BME280;21879;50.110;18.900;2023-06-24T22:14:06;99155.31;;;17.37;62.16
35758;BME280;21879;50.110;18.900;2023-06-24T22:24:35;99153.48;;;17.28;62.32
35758;BME280;21879;50.110;18.900;2023-06-24T22:35:04;99152.83;;;17.20;62.12
35758;BME280;21879;50.110;18.900;2023-06-24T22:45:32;99149.11;;;16.97;61.82
35758;BME280;21879;50.110;18.900;2023-06-24T22:56:00;99145.52;;;16.87;62.04
35758;BME280;21879;50.110;18.900;2023-06-24T23:06:29;99145.23;;;16.78;61.99
35758;BME280;21879;50.110;18.900;2023-06-24T23:16:57;99132.63;;;16.77;62.08
35758;BME280;21879;50.110;18.900;2023-06-24T23:27:26;99119.41;;;16.72;61.96
35758;BME280;21879;50.110;18.900;2023-06-24T23:38:03;99117.63;;;16.53;61.44
35758;BME280;21879;50.110;18.900;2023-06-24T23:48:31;99114.92;;;16.42;61.54
35758;BME280;21879;50.110;18.900;2023-06-24T23:58:59;99108.55;;;16.38;61.71
